createdAt,value
2019-02-12T00:03:00.442Z,4.01
2019-02-12T00:05:50.777Z,3.97
2019-02-12T00:08:54.181Z,3.95
2019-02-12T00:11:36.914Z,3.91
2019-02-12T00:14:19.588Z,3.86
2019-02-12T00:17:09.960Z,3.85
2019-02-12T00:19:53.019Z,3.84
2019-02-12T00:22:43.437Z,3.85
2019-02-12T00:25:26.093Z,3.85
2019-02-12T00:28:16.456Z,3.88
2019-02-12T00:30:59.443Z,3.90
2019-02-12T00:33:49.839Z,3.91
2019-02-12T00:36:33.159Z,3.91
2019-02-12T00:39:23.532Z,3.95
2019-02-12T00:42:06.375Z,3.94
2019-02-12T00:44:56.748Z,3.94
2019-02-12T00:47:40.170Z,3.92
2019-02-12T00:50:30.554Z,3.86
2019-02-12T00:53:13.372Z,3.83
2019-02-12T00:56:04.362Z,3.81
2019-02-12T00:58:47.764Z,3.82
2019-02-12T01:01:38.134Z,3.79
2019-02-12T01:04:21.504Z,3.77
2019-02-12T01:07:11.867Z,3.82
2019-02-12T01:09:54.456Z,3.80
2019-02-12T01:12:37.301Z,3.86
2019-02-12T01:15:27.639Z,3.88
2019-02-12T01:18:09.177Z,3.92
2019-02-12T01:20:59.571Z,3.95
2019-02-12T01:23:42.380Z,3.97
2019-02-12T01:26:32.791Z,3.97
2019-02-12T01:29:15.401Z,3.97
2019-02-12T01:32:05.758Z,3.98
2019-02-12T01:34:48.418Z,3.96
2019-02-12T01:37:38.787Z,3.95
2019-02-12T01:40:22.385Z,3.96
2019-02-12T01:43:12.764Z,3.99
2019-02-12T01:45:56.081Z,3.99
2019-02-12T01:48:46.451Z,4.00
2019-02-12T01:51:35.043Z,4.01
2019-02-12T01:54:21.962Z,4.04
2019-02-12T01:57:04.764Z,4.06
2019-02-12T01:59:55.234Z,4.07
2019-02-12T02:02:37.935Z,4.06
2019-02-12T02:05:28.297Z,4.06
2019-02-12T02:08:11.714Z,4.08
2019-02-12T02:11:02.104Z,4.10
2019-02-12T02:13:44.691Z,4.06
2019-02-12T02:16:35.035Z,4.07
2019-02-12T02:19:18.299Z,4.09
2019-02-12T02:22:08.734Z,4.08
2019-02-12T02:24:52.132Z,4.07
2019-02-12T02:27:42.565Z,4.09
2019-02-12T02:30:25.555Z,4.12
2019-02-12T02:33:15.929Z,4.08
2019-02-12T02:35:58.531Z,4.05
2019-02-12T02:38:48.900Z,3.99
2019-02-12T02:41:32.116Z,3.94
2019-02-12T02:44:22.531Z,3.89
2019-02-12T02:47:05.889Z,3.87
2019-02-12T02:49:56.270Z,3.84
2019-02-12T02:52:38.921Z,3.82
2019-02-12T02:55:29.338Z,3.76
2019-02-12T02:58:12.368Z,3.70
2019-02-12T03:01:02.740Z,3.64
2019-02-12T03:03:46.268Z,3.59
2019-02-12T03:06:36.663Z,3.62
2019-02-12T03:09:19.227Z,3.58
2019-02-12T03:12:09.629Z,3.57
2019-02-12T03:14:52.286Z,3.51
2019-02-12T03:17:42.668Z,3.44
2019-02-12T03:20:25.228Z,3.42
2019-02-12T03:23:15.581Z,3.41
2019-02-12T03:25:58.187Z,3.42
2019-02-12T03:28:48.573Z,3.46
2019-02-12T03:31:31.562Z,3.44
2019-02-12T03:34:25.769Z,3.40
2019-02-12T03:37:28.882Z,3.35
2019-02-12T03:40:19.261Z,3.29
2019-02-12T03:43:02.521Z,3.25
2019-02-12T03:45:53.788Z,3.26
2019-02-12T03:48:37.183Z,3.29
2019-02-12T03:51:27.590Z,3.23
2019-02-12T03:54:10.085Z,3.18
2019-02-12T03:57:19.311Z,3.17
2019-02-12T04:00:00.899Z,3.11
2019-02-12T04:03:02.792Z,3.06
2019-02-12T04:05:53.174Z,3.00
2019-02-12T04:08:36.635Z,3.00
2019-02-12T04:11:26.985Z,2.94
2019-02-12T04:14:09.591Z,2.95
2019-02-12T04:16:59.940Z,2.90
2019-02-12T04:19:43.042Z,2.94
2019-02-12T04:22:33.425Z,2.84
2019-02-12T04:25:16.059Z,2.85
2019-02-12T04:28:06.413Z,2.79
2019-02-12T04:30:49.072Z,2.78
2019-02-12T04:33:39.405Z,2.70
2019-02-12T04:39:38.844Z,2.62
2019-02-12T04:42:22.321Z,2.60
2019-02-12T04:45:12.694Z,2.58
2019-02-12T04:47:55.583Z,2.56
2019-02-12T04:50:45.926Z,2.55
2019-02-12T04:53:29.198Z,2.53
2019-02-12T04:56:19.550Z,2.61
2019-02-12T04:59:02.920Z,2.57
2019-02-12T05:01:53.301Z,2.52
2019-02-12T05:04:36.856Z,2.52
2019-02-12T05:07:27.209Z,2.55
2019-02-12T05:10:11.346Z,2.45
2019-02-12T05:13:01.741Z,2.51
2019-02-12T05:15:44.993Z,2.48
2019-02-12T05:18:35.346Z,2.47
2019-02-12T05:21:17.956Z,2.43
2019-02-12T05:24:08.382Z,2.42
2019-02-12T05:26:51.049Z,2.41
2019-02-12T05:29:41.379Z,2.35
2019-02-12T05:32:24.040Z,2.43
2019-02-12T05:35:06.974Z,2.36
2019-02-12T05:37:57.375Z,2.34
2019-02-12T05:41:00.160Z,2.37
2019-02-12T05:43:50.502Z,2.45
2019-02-12T05:46:33.954Z,2.38
2019-02-12T05:49:24.357Z,2.37
2019-02-12T05:52:08.097Z,2.40
2019-02-12T05:54:58.495Z,2.42
2019-02-12T05:57:41.222Z,2.45
2019-02-12T06:00:26.547Z,2.43
2019-02-12T06:03:16.889Z,2.54
2019-02-12T06:06:00.479Z,2.47
2019-02-12T06:08:50.875Z,2.52
2019-02-12T06:11:34.076Z,2.53
2019-02-12T06:14:24.454Z,2.54
2019-02-12T06:17:07.700Z,2.59
2019-02-12T06:19:58.066Z,2.64
2019-02-12T06:22:48.425Z,2.62
2019-02-12T06:25:31.327Z,2.60
2019-02-12T06:28:21.753Z,2.60
2019-02-12T06:31:04.979Z,2.63
2019-02-12T06:33:55.345Z,2.73
2019-02-12T06:36:37.906Z,2.83
2019-02-12T06:39:28.299Z,2.77
2019-02-12T06:42:11.130Z,2.80
2019-02-12T06:44:53.785Z,2.80
2019-02-12T06:51:11.679Z,2.91
2019-02-12T06:54:02.092Z,2.82
2019-02-12T06:56:52.486Z,2.79
2019-02-12T06:59:35.224Z,2.78
2019-02-12T07:03:03.679Z,2.85
2019-02-12T07:05:48.424Z,2.86
2019-02-12T07:09:16.844Z,2.86
2019-02-12T07:12:18.716Z,2.90
2019-02-12T07:15:30.328Z,2.96
2019-02-12T07:18:58.756Z,3.05
2019-02-12T07:21:47.599Z,3.14
2019-02-12T07:25:16.041Z,3.12
2019-02-12T07:28:29.245Z,3.29
2019-02-12T07:31:57.687Z,3.24
2019-02-12T07:34:42.845Z,3.21
2019-02-12T07:37:49.807Z,3.19
2019-02-12T07:40:51.462Z,3.24
2019-02-12T07:44:19.874Z,3.21
2019-02-12T07:47:21.835Z,3.28
2019-02-12T07:50:50.271Z,3.38
2019-02-12T07:53:55.211Z,3.39
2019-02-12T07:57:05.725Z,3.48
2019-02-12T07:59:57.062Z,3.52
2019-02-12T08:03:21.955Z,3.59
2019-02-12T08:06:40.418Z,3.65
2019-02-12T08:09:59.792Z,3.89
2019-02-12T08:13:28.289Z,3.79
2019-02-12T08:16:40.719Z,3.78
2019-02-12T08:19:27.845Z,3.51
2019-02-12T08:22:56.244Z,3.46
2019-02-12T08:25:57.928Z,3.39
2019-02-12T08:29:23.993Z,3.49
2019-02-12T08:32:17.966Z,3.40
2019-02-12T08:35:46.379Z,3.39
2019-02-12T08:38:48.975Z,3.45
2019-02-12T08:42:17.435Z,3.49
2019-02-12T08:45:05.685Z,3.65
2019-02-12T08:48:24.489Z,3.80
2019-02-12T08:51:52.931Z,3.75
2019-02-12T08:54:47.416Z,3.70
2019-02-12T08:58:01.077Z,3.69
2019-02-12T09:00:47.631Z,3.77
2019-02-12T09:04:16.116Z,3.78
2019-02-12T09:07:24.572Z,3.81
2019-02-12T09:10:53.017Z,3.78
2019-02-12T09:13:41.686Z,3.79
2019-02-12T09:17:10.145Z,3.84
2019-02-12T09:19:55.996Z,3.90
2019-02-12T09:23:21.302Z,3.91
2019-02-12T09:26:23.487Z,3.97
2019-02-12T09:29:51.943Z,4.00
2019-02-12T09:32:53.891Z,3.95
2019-02-12T09:36:22.299Z,4.09
2019-02-12T09:39:24.684Z,4.09
2019-02-12T09:42:53.123Z,4.05
2019-02-12T09:46:01.418Z,4.13
2019-02-12T09:49:29.839Z,4.16
2019-02-12T09:52:19.278Z,4.28
2019-02-12T09:55:40.779Z,4.32
2019-02-12T09:58:54.498Z,4.46
2019-02-12T10:01:44.024Z,4.58
2019-02-12T10:05:12.475Z,4.76
2019-02-12T10:08:14.234Z,4.88
2019-02-12T10:11:30.703Z,5.13
2019-02-12T10:14:35.831Z,5.48
2019-02-12T10:18:04.202Z,5.73
2019-02-12T10:20:51.147Z,5.97
2019-02-12T10:24:05.062Z,6.19
2019-02-12T10:26:53.875Z,6.42
2019-02-12T10:30:17.443Z,6.87
2019-02-12T10:33:00.701Z,7.05
2019-02-12T10:35:51.064Z,7.26
2019-02-12T10:38:33.629Z,7.45
2019-02-12T10:41:23.978Z,7.83
2019-02-12T10:44:06.504Z,8.98
2019-02-12T10:46:56.914Z,10.24
2019-02-12T10:49:39.816Z,11.15
2019-02-12T10:52:30.232Z,11.36
2019-02-12T10:55:12.970Z,11.19
2019-02-12T10:58:22.200Z,11.24
2019-02-12T11:01:05.772Z,11.49
2019-02-12T11:03:56.168Z,11.66
2019-02-12T11:06:38.938Z,11.47
2019-02-12T11:12:56.448Z,11.79
2019-02-12T11:15:46.847Z,11.78
2019-02-12T11:18:37.191Z,11.53
2019-02-12T11:21:19.784Z,11.88
2019-02-12T11:24:10.160Z,12.65
2019-02-12T11:26:53.507Z,12.88
2019-02-12T11:29:43.903Z,12.74
2019-02-12T11:32:26.449Z,12.89
2019-02-12T11:35:16.820Z,12.94
2019-02-12T11:37:59.852Z,12.86
2019-02-12T11:40:50.248Z,12.51
2019-02-12T11:43:33.336Z,11.93
2019-02-12T11:46:23.677Z,11.45
2019-02-12T11:49:07.103Z,11.05
2019-02-12T11:51:57.481Z,10.57
2019-02-12T11:54:43.673Z,10.17
2019-02-12T11:57:32.157Z,10.21
2019-02-12T12:03:20.393Z,9.63
2019-02-12T12:06:10.786Z,9.49
2019-02-12T12:08:53.579Z,9.36
2019-02-12T12:11:43.922Z,9.33
2019-02-12T12:14:26.809Z,8.80
2019-02-12T12:17:17.195Z,8.82
2019-02-12T12:20:00.471Z,8.70
2019-02-12T12:22:50.863Z,8.45
2019-02-12T12:25:34.341Z,8.06
2019-02-12T12:28:24.745Z,8.01
2019-02-12T12:31:08.123Z,8.09
2019-02-12T12:33:58.487Z,8.02
2019-02-12T12:36:41.654Z,7.86
2019-02-12T12:39:32.018Z,7.62
2019-02-12T12:42:15.197Z,7.46
2019-02-12T12:45:06.371Z,7.13
2019-02-12T12:47:56.718Z,7.04
2019-02-12T12:50:39.293Z,7.02
2019-02-12T12:53:29.683Z,7.03
2019-02-12T12:56:13.158Z,7.00
2019-02-12T12:59:03.511Z,7.05
2019-02-12T13:01:46.197Z,7.22
2019-02-12T13:04:28.732Z,7.11
2019-02-12T13:07:19.116Z,7.09
2019-02-12T13:10:02.112Z,7.01
2019-02-12T13:12:52.478Z,7.15
2019-02-12T13:15:35.445Z,7.20
2019-02-12T13:18:25.822Z,7.15
2019-02-12T13:21:16.452Z,7.24
2019-02-12T13:24:06.800Z,7.30
2019-02-12T13:26:49.491Z,7.35
2019-02-12T13:29:39.973Z,7.39
2019-02-12T13:32:23.222Z,7.36
2019-02-12T13:38:42.299Z,7.49
2019-02-12T13:41:32.657Z,7.41
2019-02-12T13:44:15.828Z,7.52
2019-02-12T13:46:58.577Z,7.58
2019-02-12T13:49:48.940Z,7.53
2019-02-12T13:52:31.837Z,7.45
2019-02-12T13:55:22.715Z,7.36
2019-02-12T13:58:26.733Z,7.32
2019-02-12T14:01:17.047Z,7.30
2019-02-12T14:04:00.354Z,7.42
2019-02-12T14:06:50.688Z,7.47
2019-02-12T14:09:34.182Z,7.34
2019-02-12T14:12:24.566Z,7.49
2019-02-12T14:15:08.476Z,7.48
2019-02-12T14:17:58.838Z,7.58
2019-02-12T14:20:41.449Z,7.69
2019-02-12T14:23:31.825Z,8.08
2019-02-12T14:26:15.032Z,8.43
2019-02-12T14:29:05.431Z,9.22
2019-02-12T14:31:53.035Z,9.95
2019-02-12T14:34:40.942Z,10.45
2019-02-12T14:37:24.380Z,10.29
2019-02-12T14:43:32.237Z,10.36
2019-02-12T14:46:22.591Z,10.03
2019-02-12T14:49:12.986Z,9.99
2019-02-12T14:51:55.741Z,10.01
2019-02-12T14:54:38.378Z,9.91
2019-02-12T14:57:28.753Z,10.01
2019-02-12T15:00:12.785Z,10.25
2019-02-12T15:03:03.218Z,10.04
2019-02-12T15:05:46.737Z,9.57
2019-02-12T15:08:37.136Z,9.55
2019-02-12T15:11:21.345Z,9.55
2019-02-12T15:14:11.722Z,9.31
2019-02-12T15:16:55.005Z,9.44
2019-02-12T15:19:45.415Z,9.33
2019-02-12T15:22:28.055Z,9.19
2019-02-12T15:25:18.406Z,9.22
2019-02-12T15:28:01.727Z,9.30
2019-02-12T15:30:52.112Z,9.17
2019-02-12T15:33:35.373Z,9.22
2019-02-12T15:36:25.816Z,9.43
2019-02-12T15:39:09.010Z,8.97
2019-02-12T15:41:59.417Z,8.81
2019-02-12T15:44:42.708Z,8.34
2019-02-12T15:47:25.508Z,8.25
2019-02-12T15:50:15.873Z,8.21
2019-02-12T15:52:58.415Z,8.03
2019-02-12T15:55:51.270Z,7.93
2019-02-12T15:58:53.725Z,7.71
2019-02-12T16:01:44.067Z,7.52
2019-02-12T16:04:27.427Z,7.40
2019-02-12T16:07:17.862Z,7.32
2019-02-12T16:10:01.451Z,7.23
2019-02-12T16:12:51.836Z,7.18
2019-02-12T16:15:35.363Z,7.12
2019-02-12T16:18:20.642Z,7.02
2019-02-12T16:21:10.790Z,7.04
2019-02-12T16:23:54.178Z,6.93
2019-02-12T16:26:44.557Z,6.84
2019-02-12T16:29:27.941Z,6.75
2019-02-12T16:32:18.403Z,6.80
2019-02-12T16:35:01.922Z,6.63
2019-02-12T16:37:52.315Z,6.63
2019-02-12T16:40:35.504Z,6.57
2019-02-12T16:43:25.892Z,6.54
2019-02-12T16:46:11.097Z,6.53
2019-02-12T16:49:01.469Z,6.48
2019-02-12T16:51:44.573Z,6.51
2019-02-12T16:54:34.979Z,6.35
2019-02-12T16:57:17.839Z,6.30
2019-02-12T17:00:30.744Z,6.34
2019-02-12T17:03:13.756Z,6.39
2019-02-12T17:05:56.677Z,6.38
2019-02-12T17:08:47.096Z,6.26
2019-02-12T17:11:29.627Z,6.15
2019-02-12T17:14:20.014Z,6.17
2019-02-12T17:17:02.626Z,6.09
2019-02-12T17:19:53.024Z,6.07
2019-02-12T17:22:43.404Z,5.94
2019-02-12T17:25:26.196Z,5.94
2019-02-12T17:28:16.647Z,6.14
2019-02-12T17:31:00.000Z,5.93
2019-02-12T17:33:50.381Z,5.85
2019-02-12T17:36:33.614Z,5.90
2019-02-12T17:39:16.761Z,5.85
2019-02-12T17:42:07.124Z,5.75
2019-02-12T17:44:49.866Z,5.72
2019-02-12T17:47:40.306Z,5.75
2019-02-12T17:50:12.609Z,5.70
2019-02-12T17:53:02.950Z,5.68
2019-02-12T17:55:53.428Z,5.68
2019-02-12T17:58:24.695Z,5.66
2019-02-12T18:01:15.062Z,5.64
2019-02-12T18:03:57.952Z,5.61
2019-02-12T18:06:48.347Z,5.57
2019-02-12T18:09:31.343Z,5.55
2019-02-12T18:12:21.726Z,5.56
2019-02-12T18:15:05.074Z,5.54
2019-02-12T18:17:55.464Z,5.50
2019-02-12T18:20:38.962Z,5.45
2019-02-12T18:26:37.529Z,5.53
2019-02-12T18:29:27.895Z,5.69
2019-02-12T18:32:10.626Z,5.72
2019-02-12T18:35:00.984Z,5.56
2019-02-12T18:37:44.404Z,5.50
2019-02-12T18:40:28.491Z,5.55
2019-02-12T18:43:18.896Z,5.55
2019-02-12T18:46:02.094Z,5.50
2019-02-12T18:48:52.497Z,5.46
2019-02-12T18:51:35.990Z,5.47
2019-02-12T18:54:26.379Z,5.48
2019-02-12T18:57:09.786Z,5.53
2019-02-12T19:00:00.224Z,5.45
2019-02-12T19:02:43.414Z,5.38
2019-02-12T19:05:33.747Z,5.36
2019-02-12T19:08:16.585Z,5.40
2019-02-12T19:11:06.943Z,5.37
2019-02-12T19:13:50.017Z,5.36
2019-02-12T19:16:40.471Z,5.43
2019-02-12T19:19:23.609Z,5.39
2019-02-12T19:22:14.054Z,5.35
2019-02-12T19:24:56.832Z,5.38
2019-02-12T19:27:47.176Z,5.38
2019-02-12T19:30:29.771Z,5.34
2019-02-12T19:33:20.123Z,5.37
2019-02-12T19:36:03.708Z,5.44
2019-02-12T19:38:54.077Z,5.39
2019-02-12T19:41:37.101Z,5.45
2019-02-12T19:44:27.465Z,5.33
2019-02-12T19:47:10.082Z,5.29
2019-02-12T19:50:00.484Z,5.30
2019-02-12T19:52:44.015Z,5.34
2019-02-12T19:55:34.467Z,5.29
2019-02-12T19:58:17.885Z,5.28
2019-02-12T20:01:08.327Z,5.17
2019-02-12T20:03:51.761Z,5.19
2019-02-12T20:06:42.200Z,5.22
2019-02-12T20:09:25.440Z,5.18
2019-02-12T20:12:15.867Z,5.19
2019-02-12T20:15:18.361Z,5.28
2019-02-12T20:18:08.787Z,5.22
2019-02-12T20:20:52.269Z,5.19
2019-02-12T20:23:42.686Z,5.18
2019-02-12T20:26:25.434Z,5.20
2019-02-12T20:29:34.690Z,5.15
2019-02-12T20:32:18.039Z,5.23
2019-02-12T20:35:09.060Z,5.41
2019-02-12T20:38:11.810Z,5.61
2019-02-12T20:41:02.185Z,5.39
2019-02-12T20:43:44.279Z,5.40
2019-02-12T20:46:25.092Z,5.26
2019-02-12T20:49:15.426Z,5.22
2019-02-12T20:51:58.020Z,5.28
2019-02-12T20:54:48.496Z,5.19
2019-02-12T20:57:31.739Z,5.15
2019-02-12T21:03:38.216Z,5.16
2019-02-12T21:06:21.427Z,5.11
2019-02-12T21:09:11.865Z,5.12
2019-02-12T21:11:54.584Z,5.10
2019-02-12T21:14:44.987Z,5.12
2019-02-12T21:17:27.936Z,5.09
2019-02-12T21:20:18.351Z,5.04
2019-02-12T21:26:11.255Z,5.22
2019-02-12T21:29:01.669Z,5.11
2019-02-12T21:31:45.011Z,5.13
2019-02-12T21:34:35.419Z,5.12
2019-02-12T21:37:18.475Z,5.16
2019-02-12T21:40:12.161Z,5.15
2019-02-12T21:42:55.170Z,5.08
2019-02-12T21:45:45.602Z,5.18
2019-02-12T21:48:28.166Z,5.28
2019-02-12T21:51:18.548Z,5.18
2019-02-12T21:54:01.105Z,5.12
2019-02-12T21:56:51.485Z,5.14
2019-02-12T21:59:34.764Z,5.16
2019-02-12T22:02:25.171Z,5.17
2019-02-12T22:05:08.669Z,5.16
2019-02-12T22:07:51.392Z,5.12
2019-02-12T22:10:46.402Z,5.17
2019-02-12T22:13:46.513Z,5.21
2019-02-12T22:16:36.883Z,5.19
2019-02-12T22:19:19.497Z,5.30
2019-02-12T22:22:09.915Z,5.34
2019-02-12T22:24:53.249Z,5.26
2019-02-12T22:27:43.609Z,5.21
2019-02-12T22:30:26.886Z,5.27
2019-02-12T22:33:17.260Z,5.23
2019-02-12T22:35:59.803Z,5.22
2019-02-12T22:38:50.144Z,5.20
2019-02-12T22:41:33.564Z,5.20
2019-02-12T22:44:23.835Z,5.21
2019-02-12T22:47:06.558Z,5.21
2019-02-12T22:49:56.929Z,5.16
2019-02-12T22:52:39.716Z,5.19
2019-02-12T22:55:30.073Z,5.20
2019-02-12T22:58:13.433Z,5.13
2019-02-12T23:04:53.411Z,5.07
2019-02-12T23:07:43.748Z,5.07
2019-02-12T23:10:26.713Z,5.09
2019-02-12T23:13:17.097Z,5.06
2019-02-12T23:16:00.480Z,5.17
2019-02-12T23:18:50.856Z,5.03
2019-02-12T23:21:34.233Z,5.06
2019-02-12T23:24:24.612Z,5.01
2019-02-12T23:27:07.562Z,5.01
2019-02-12T23:29:57.957Z,4.98
2019-02-12T23:32:40.451Z,4.98
2019-02-12T23:35:30.908Z,5.08
2019-02-12T23:38:13.459Z,5.20
2019-02-12T23:41:03.844Z,5.14
2019-02-12T23:43:47.174Z,5.20
2019-02-12T23:46:37.507Z,5.17
2019-02-12T23:49:20.698Z,5.12
2019-02-12T23:52:11.084Z,5.19
2019-02-12T23:54:54.299Z,5.13
2019-02-12T23:57:44.630Z,5.13
